Terminal Aerodrome Forecast
Issued by NWS Louisville, KY

Home | Current Version | Previous Version | Text Only | Print | Product List | Glossary On
Versions: 1 2 3 4 5 6 7 8 9 10 11 12 13
000
FTUS43 KLMK 242321
TAFLEX
TAF
KLEX 242321Z 2500/2524 27008KT P6SM FEW050
     FM250100 24004KT P6SM SKC
     FM251500 30008KT P6SM FEW040=

USA.gov is the U.S. government's official web portal to all federal, state and local government web resources and services.